Time;durP1;ratioP1;P1;durP2;ratioP2;P2;SDS_P1;SDS_P2;PMS_P1;PMS_P2;Temp;Humidity;BMP_temperature;BMP_pressure;BME280_temperature;BME280_humidity;BME280_pressure;Samples;Min_cycle;Max_cycle;Signal;HPM_P1;HPM_P2
2022/07/13 00:02:23;;;;;;;3.58;3.28;;;25.90;57.00;27.50;101423.00;;;;5066584;28;20268;-44
2022/07/13 00:04:49;;;;;;;3.47;3.17;;;25.90;57.00;27.40;101417.00;;;;5066480;28;20173;-44
2022/07/13 00:07:15;;;;;;;4.45;3.10;;;25.90;57.10;27.40;101408.00;;;;5066339;28;20190;-44
2022/07/13 00:09:41;;;;;;;3.40;3.10;;;25.80;57.30;27.40;101400.00;;;;5066498;28;20205;-45
2022/07/13 00:12:07;;;;;;;3.35;3.05;;;25.80;57.30;27.40;101402.00;;;;5066691;28;20162;-45
2022/07/13 00:14:33;;;;;;;3.30;3.00;;;25.80;57.40;27.40;101396.00;;;;5066736;28;20529;-44
2022/07/13 00:16:59;;;;;;;3.30;3.00;;;25.80;57.60;27.40;101394.00;;;;5066199;28;20442;-46
2022/07/13 00:19:24;;;;;;;3.25;3.05;;;25.80;57.50;27.30;101380.00;;;;5066349;28;20177;-43
2022/07/13 00:21:50;;;;;;;3.30;3.10;;;25.80;57.60;27.30;101382.00;;;;5065981;28;20681;-44
2022/07/13 00:24:16;;;;;;;3.28;2.97;;;25.80;57.50;27.30;101378.00;;;;5066194;28;20176;-44
2022/07/13 00:26:42;;;;;;;3.80;3.30;;;25.80;57.70;27.30;101374.00;;;;5066141;28;20186;-44
2022/07/13 00:29:08;;;;;;;3.28;2.97;;;25.80;57.70;27.30;101364.00;;;;5065904;28;20256;-43
2022/07/13 00:31:34;;;;;;;3.10;2.90;;;25.80;57.70;27.30;101362.00;;;;5066339;28;20566;-44
2022/07/13 00:33:59;;;;;;;3.65;3.28;;;25.80;57.80;27.30;101363.00;;;;5065972;28;20256;-44
2022/07/13 00:36:25;;;;;;;3.75;3.45;;;25.70;57.40;27.20;101369.00;;;;5066014;28;20479;-47
2022/07/13 00:38:51;;;;;;;3.67;3.05;;;25.70;57.70;27.20;101358.00;;;;5065938;28;20173;-42
2022/07/13 00:41:17;;;;;;;3.67;3.00;;;25.60;57.70;27.20;101347.00;;;;5065839;28;20218;-43
2022/07/13 00:43:42;;;;;;;3.30;3.10;;;25.60;57.70;27.20;101351.00;;;;5065401;28;20495;-45
2022/07/13 00:46:09;;;;;;;3.20;3.00;;;25.70;57.80;27.20;101358.00;;;;5065393;28;20182;-43
2022/07/13 00:48:35;;;;;;;3.42;3.05;;;25.70;57.70;27.20;101351.00;;;;5066510;28;20198;-43
2022/07/13 00:51:01;;;;;;;3.30;3.00;;;25.60;57.70;27.10;101350.00;;;;5066192;28;20480;-44
2022/07/13 00:53:27;;;;;;;3.50;3.20;;;25.60;57.80;27.10;101350.00;;;;5064630;28;20193;-45
2022/07/13 00:55:52;;;;;;;3.55;3.25;;;25.60;57.80;27.10;101346.00;;;;5066705;28;20211;-44
2022/07/13 00:58:18;;;;;;;3.10;2.90;;;25.60;57.60;27.10;101349.00;;;;5070794;28;20204;-46
2022/07/13 01:00:44;;;;;;;3.85;3.42;;;25.60;57.60;27.10;101340.00;;;;5069937;28;20172;-47
2022/07/13 01:03:10;;;;;;;3.33;3.00;;;25.60;57.60;27.00;101342.00;;;;5067452;28;20658;-45
2022/07/13 01:05:36;;;;;;;3.35;3.05;;;25.60;57.70;27.00;101332.00;;;;5065697;28;20174;-43
2022/07/13 01:08:05;;;;;;;3.28;3.05;;;25.60;57.70;27.00;101333.00;;;;5064836;28;20280;-44
2022/07/13 01:10:31;;;;;;;3.97;2.90;;;25.60;57.60;26.80;101335.00;;;;5066290;28;20172;-45
2022/07/13 01:12:56;;;;;;;3.35;3.05;;;25.60;57.60;27.00;101311.00;;;;5065228;28;20165;-44
2022/07/13 01:15:22;;;;;;;3.25;3.05;;;25.60;57.60;27.00;101331.00;;;;5065533;28;20484;-47
2022/07/13 01:17:48;;;;;;;3.22;3.00;;;25.60;57.60;27.00;101324.00;;;;5066542;28;20193;-44
2022/07/13 01:20:15;;;;;;;3.00;2.80;;;25.50;57.50;27.00;101328.00;;;;5065650;28;20169;-45
2022/07/13 01:22:49;;;;;;;4.45;2.90;;;25.60;57.60;26.90;101325.00;;;;5065551;28;20219;-47
2022/07/13 01:25:15;;;;;;;3.08;2.80;;;25.60;57.60;26.90;101321.00;;;;5064334;28;20188;-45
2022/07/13 01:27:41;;;;;;;3.15;2.85;;;25.60;57.60;26.90;101321.00;;;;5063846;28;20213;-44
2022/07/13 01:30:07;;;;;;;3.28;2.97;;;25.50;57.50;26.90;101319.00;;;;5066728;28;20166;-45
2022/07/13 01:32:47;;;;;;;2.90;2.70;;;25.60;57.60;26.90;101317.00;;;;5065571;28;20180;-46
2022/07/13 01:35:15;;;;;;;3.05;2.83;;;25.60;57.60;26.90;101318.00;;;;5065744;28;20161;-43
2022/07/13 01:37:41;;;;;;;4.78;3.03;;;25.60;57.60;26.90;101325.00;;;;5065387;28;20204;-46
2022/07/13 01:40:08;;;;;;;3.22;2.90;;;25.50;57.60;26.80;101331.00;;;;5063981;28;20181;-44
2022/07/13 01:42:45;;;;;;;2.90;2.70;;;25.50;57.80;26.80;101325.00;;;;5065252;28;20201;-44
2022/07/13 01:45:12;;;;;;;3.25;2.95;;;25.50;57.70;26.80;101326.00;;;;5065820;28;20365;-44
2022/07/13 01:47:45;;;;;;;3.10;2.80;;;25.50;57.60;26.80;101328.00;;;;5065093;28;20535;-45
2022/07/13 01:50:11;;;;;;;3.08;2.85;;;25.50;57.70;26.80;101340.00;;;;5066933;28;20265;-45
2022/07/13 01:52:37;;;;;;;3.22;2.92;;;25.40;58.00;26.80;101326.00;;;;5068075;28;20162;-47
2022/07/13 01:55:07;;;;;;;3.40;3.10;;;25.40;58.00;26.80;101326.00;;;;5071558;28;20192;-44
2022/07/13 01:57:33;;;;;;;3.30;3.00;;;25.40;58.10;26.80;101320.00;;;;5066449;28;20273;-45
2022/07/13 02:00:00;;;;;;;3.40;3.20;;;25.40;58.00;26.80;101311.00;;;;5068796;28;20269;-45
2022/07/13 02:02:26;;;;;;;3.35;3.05;;;25.40;58.00;26.70;101302.00;;;;5068628;28;20170;-44
2022/07/13 02:04:52;;;;;;;3.33;3.10;;;25.50;58.20;26.70;101287.00;;;;5068999;28;20162;-45
2022/07/13 02:07:18;;;;;;;2.85;2.65;;;25.40;58.10;26.70;101269.00;;;;5068974;28;20189;-44
2022/07/13 02:09:43;;;;;;;2.80;2.60;;;25.40;57.70;26.70;101268.00;;;;5068600;28;20198;-44
2022/07/13 02:12:09;;;;;;;2.90;2.70;;;25.30;56.60;26.60;101276.00;;;;5068506;28;20173;-44
2022/07/13 02:14:35;;;;;;;2.92;2.63;;;25.30;56.30;26.60;101287.00;;;;5067254;28;20169;-42
2022/07/13 02:17:01;;;;;;;3.03;2.60;;;25.30;56.60;26.60;101281.00;;;;5068336;28;20185;-44
2022/07/13 02:19:26;;;;;;;3.15;2.85;;;25.30;56.80;26.60;101272.00;;;;5068233;28;20182;-44
2022/07/13 02:21:52;;;;;;;2.92;2.70;;;25.20;56.70;26.60;101278.00;;;;5068539;28;20236;-45
2022/07/13 02:24:18;;;;;;;2.90;2.70;;;25.20;57.00;26.50;101275.00;;;;5068284;28;20554;-45
2022/07/13 02:26:43;;;;;;;3.58;2.90;;;25.30;57.20;26.50;101283.00;;;;5068271;28;20940;-44
2022/07/13 02:29:09;;;;;;;3.00;2.80;;;25.20;57.20;26.60;101277.00;;;;5067845;28;20690;-43
2022/07/13 02:31:35;;;;;;;3.40;2.90;;;25.20;57.40;26.60;101267.00;;;;5068266;28;20197;-44
2022/07/13 02:34:01;;;;;;;3.20;2.90;;;25.30;57.50;26.50;101276.00;;;;5068039;28;20196;-45
2022/07/13 02:36:27;;;;;;;3.20;2.90;;;25.30;57.50;26.50;101281.00;;;;5068360;28;20166;-44
2022/07/13 02:38:52;;;;;;;3.10;2.80;;;25.30;57.60;26.50;101284.00;;;;5068217;28;20184;-45
2022/07/13 02:41:18;;;;;;;3.00;2.80;;;25.30;57.60;26.50;101283.00;;;;5068138;28;20178;-44
2022/07/13 02:43:44;;;;;;;3.20;3.00;;;25.30;57.70;26.50;101278.00;;;;5068213;28;20162;-43
2022/07/13 02:46:10;;;;;;;3.05;2.75;;;25.30;57.60;26.50;101277.00;;;;5067779;28;20433;-43
2022/07/13 02:48:35;;;;;;;3.15;2.85;;;25.30;57.60;26.50;101279.00;;;;5067690;28;20275;-45
2022/07/13 02:51:01;;;;;;;2.90;2.67;;;25.30;57.50;26.50;101273.00;;;;5070317;28;20174;-45
2022/07/13 02:53:27;;;;;;;2.97;2.67;;;25.30;57.50;26.50;101270.00;;;;5073974;28;20185;-45
2022/07/13 02:55:53;;;;;;;3.10;2.80;;;25.30;57.60;26.50;101271.00;;;;5067619;28;20193;-45
2022/07/13 02:58:18;;;;;;;2.90;2.70;;;25.30;57.80;26.50;101273.00;;;;5067487;28;20557;-44
2022/07/13 03:00:44;;;;;;;3.22;2.92;;;25.30;57.80;26.50;101267.00;;;;5067192;28;20179;-46
2022/07/13 03:03:10;;;;;;;2.85;2.65;;;25.20;57.80;26.50;101260.00;;;;5067295;28;20165;-43
2022/07/13 03:05:36;;;;;;;2.85;2.65;;;25.20;57.90;26.50;101254.00;;;;5067696;28;20261;-43
2022/07/13 03:08:02;;;;;;;3.83;2.88;;;25.30;57.80;26.50;101260.00;;;;5066089;28;20232;-43
2022/07/13 03:10:27;;;;;;;2.80;2.60;;;25.30;57.90;26.50;101255.00;;;;5066290;28;20606;-44
2022/07/13 03:12:54;;;;;;;3.20;2.75;;;25.20;57.80;26.40;101253.00;;;;5067009;28;20744;-45
2022/07/13 03:15:21;;;;;;;2.85;2.63;;;25.20;58.00;26.50;101250.00;;;;5067083;28;20174;-46
2022/07/13 03:17:46;;;;;;;2.90;2.70;;;25.20;58.20;26.40;101250.00;;;;5067059;28;20261;-44
2022/07/13 03:20:12;;;;;;;3.28;2.97;;;25.20;58.10;26.50;101255.00;;;;5066847;28;20272;-44
2022/07/13 03:22:38;;;;;;;3.28;2.88;;;25.20;57.60;26.40;101253.00;;;;5067004;28;20174;-44
2022/07/13 03:25:07;;;;;;;3.25;2.95;;;25.20;57.90;26.40;101255.00;;;;5067316;28;20224;-45
2022/07/13 03:27:33;;;;;;;4.30;2.92;;;25.20;58.00;26.40;101255.00;;;;5067215;28;20636;-45
2022/07/13 03:29:58;;;;;;;3.10;2.90;;;25.20;58.00;26.20;101250.00;;;;5066761;28;20193;-44
2022/07/13 03:32:24;;;;;;;3.42;3.13;;;25.20;58.00;26.40;101179.00;;;;5066899;28;20527;-44
2022/07/13 03:34:50;;;;;;;2.80;2.60;;;25.20;57.90;26.40;101243.00;;;;5065937;28;20374;-44
2022/07/13 03:37:16;;;;;;;3.00;2.72;;;25.20;57.90;26.40;101246.00;;;;5065530;28;20200;-47
2022/07/13 03:39:41;;;;;;;4.20;3.80;;;25.20;57.70;26.40;101237.00;;;;5065971;28;20180;-43
2022/07/13 03:42:07;;;;;;;4.75;4.28;;;25.20;57.70;26.40;101244.00;;;;5065664;28;20192;-44
2022/07/13 03:44:33;;;;;;;4.00;3.70;;;25.10;57.80;26.30;101247.00;;;;5066028;28;20184;-44
2022/07/13 03:47:00;;;;;;;3.95;3.50;;;25.20;57.80;26.30;101253.00;;;;5066836;28;20189;-44
2022/07/13 03:49:26;;;;;;;3.85;3.17;;;25.20;57.70;26.30;101251.00;;;;5073062;28;20279;-44
2022/07/13 03:51:52;;;;;;;3.33;3.03;;;25.10;57.40;26.30;101248.00;;;;5067702;28;20174;-44
2022/07/13 03:54:17;;;;;;;3.05;2.85;;;25.10;57.50;26.30;101252.00;;;;5066255;28;20268;-44
2022/07/13 03:56:43;;;;;;;3.30;2.97;;;25.10;57.50;26.30;101254.00;;;;5066312;28;20191;-44
2022/07/13 03:59:09;;;;;;;3.47;3.17;;;25.10;57.70;26.30;101250.00;;;;5066175;28;20262;-44
2022/07/13 04:01:35;;;;;;;4.68;3.08;;;25.10;57.70;26.30;101249.00;;;;5066604;28;20203;-44
2022/07/13 04:04:03;;;;;;;3.20;2.90;;;25.10;57.70;26.30;101252.00;;;;5066464;28;20208;-44
2022/07/13 04:06:29;;;;;;;5.65;3.00;;;25.10;57.50;26.20;101248.00;;;;5066509;28;20213;-43
2022/07/13 04:08:55;;;;;;;6.15;2.80;;;25.10;57.50;26.20;101184.00;;;;5066220;28;20732;-45
2022/07/13 04:11:20;;;;;;;4.18;2.65;;;25.10;57.50;26.20;101245.00;;;;5066141;28;20192;-48
2022/07/13 04:13:46;;;;;;;4.65;2.72;;;25.10;57.50;26.20;101250.00;;;;5066486;28;20185;-44
2022/07/13 04:16:12;;;;;;;3.10;2.80;;;25.10;57.50;26.20;101252.00;;;;5066385;28;20169;-42
2022/07/13 04:18:38;;;;;;;3.00;2.67;;;25.10;57.40;26.20;101251.00;;;;5066041;28;20228;-44
2022/07/13 04:21:04;;;;;;;3.05;2.85;;;25.10;57.40;26.20;101195.00;;;;5065214;28;20166;-44
2022/07/13 04:23:30;;;;;;;3.13;2.90;;;25.10;57.50;26.20;101249.00;;;;5068696;28;20246;-45
2022/07/13 04:25:56;;;;;;;3.05;2.83;;;25.00;57.50;26.20;101255.00;;;;5066311;28;20727;-45
2022/07/13 04:28:23;;;;;;;2.92;2.58;;;25.00;57.30;26.20;101247.00;;;;5065803;28;20205;-46
2022/07/13 04:30:49;;;;;;;2.97;2.70;;;25.00;57.10;26.20;101260.00;;;;5066417;28;20234;-45
2022/07/13 04:33:15;;;;;;;2.90;2.70;;;25.00;56.40;26.20;101249.00;;;;5066263;28;20639;-45
2022/07/13 04:35:40;;;;;;;3.08;2.75;;;25.00;56.70;26.10;101251.00;;;;5066868;28;20169;-45
2022/07/13 04:38:06;;;;;;;2.90;2.70;;;25.00;56.80;26.10;101235.00;;;;5066730;28;20250;-44
2022/07/13 04:40:32;;;;;;;3.25;2.95;;;25.00;56.80;26.10;101243.00;;;;5066028;28;20178;-44
2022/07/13 04:42:58;;;;;;;2.92;2.55;;;25.00;56.80;26.10;101236.00;;;;5065801;28;20178;-42
2022/07/13 04:45:23;;;;;;;3.17;2.60;;;25.00;56.90;26.10;101237.00;;;;5065156;28;20308;-43
2022/07/13 04:47:49;;;;;;;2.97;2.60;;;25.00;56.80;26.10;101242.00;;;;5075630;28;20264;-44
2022/07/13 04:50:15;;;;;;;3.40;2.55;;;25.00;56.50;26.10;101230.00;;;;5073020;28;20174;-44
2022/07/13 04:52:41;;;;;;;3.35;2.70;;;25.00;56.70;26.10;101232.00;;;;5070926;28;20216;-45
2022/07/13 04:55:07;;;;;;;2.67;2.47;;;25.00;56.90;26.10;101235.00;;;;5073643;28;20169;-44
2022/07/13 04:57:33;;;;;;;3.05;2.70;;;25.00;56.50;26.10;101230.00;;;;5066587;28;20403;-43
2022/07/13 04:59:59;;;;;;;3.17;2.40;;;25.00;56.60;26.00;101227.00;;;;5065819;28;20173;-43
2022/07/13 05:02:25;;;;;;;2.70;2.50;;;25.00;56.50;25.80;101232.00;;;;5065678;28;20166;-43
2022/07/13 05:04:50;;;;;;;2.80;2.60;;;25.00;56.70;26.00;101214.00;;;;5065378;28;20461;-43
2022/07/13 05:07:16;;;;;;;2.92;2.60;;;25.00;56.70;26.00;101228.00;;;;5065512;28;20269;-45
2022/07/13 05:09:43;;;;;;;2.75;2.55;;;25.00;56.70;26.00;101225.00;;;;5066458;28;20257;-45
2022/07/13 05:12:08;;;;;;;2.70;2.50;;;25.00;56.60;26.00;101215.00;;;;5065462;28;20162;-45
2022/07/13 05:14:35;;;;;;;2.83;2.63;;;25.00;56.70;26.00;101219.00;;;;5065042;28;20189;-46
2022/07/13 05:17:01;;;;;;;3.75;2.72;;;25.00;56.60;26.00;101222.00;;;;5065039;28;20621;-45
2022/07/13 05:19:27;;;;;;;2.92;2.55;;;24.90;56.90;26.00;101232.00;;;;5065142;28;20208;-46
2022/07/13 05:21:52;;;;;;;3.22;2.45;;;25.00;56.70;26.00;101237.00;;;;5065338;28;20249;-45
2022/07/13 05:24:18;;;;;;;3.00;2.70;;;24.90;56.60;25.90;101234.00;;;;5064900;28;20197;-42
2022/07/13 05:26:44;;;;;;;3.53;2.60;;;24.90;56.80;25.90;101222.00;;;;5065517;28;20209;-43
2022/07/13 05:29:09;;;;;;;2.80;2.60;;;24.90;56.60;25.90;101223.00;;;;5065190;28;20205;-43
2022/07/13 05:31:35;;;;;;;2.80;2.60;;;25.00;56.80;25.90;101217.00;;;;5065268;28;20731;-46
2022/07/13 05:34:01;;;;;;;4.47;2.73;;;24.90;56.80;25.90;101210.00;;;;5067645;28;20166;-46
2022/07/13 05:36:27;;;;;;;3.07;2.63;;;24.90;57.40;25.90;101205.00;;;;5071402;28;20169;-45
2022/07/13 05:38:53;;;;;;;2.85;2.40;;;24.90;56.60;25.90;101218.00;;;;5068175;28;20170;-46
2022/07/13 05:41:18;;;;;;;2.97;2.60;;;24.90;56.50;25.90;101227.00;;;;5069221;28;20201;-45
2022/07/13 05:43:44;;;;;;;3.13;2.42;;;24.90;56.60;25.90;101220.00;;;;5068403;28;20185;-43
2022/07/13 05:46:10;;;;;;;2.95;2.60;;;24.80;56.30;25.80;101224.00;;;;5069305;28;20177;-43
2022/07/13 05:48:36;;;;;;;2.47;2.28;;;24.80;56.30;25.80;101220.00;;;;5068539;28;20292;-43
2022/07/13 05:51:02;;;;;;;3.33;2.43;;;24.80;56.40;25.80;101226.00;;;;5069379;28;20170;-44
2022/07/13 05:53:27;;;;;;;2.90;2.63;;;24.80;56.30;25.80;101221.00;;;;5068788;28;20177;-46
2022/07/13 05:55:53;;;;;;;4.47;2.40;;;24.80;56.30;25.80;101232.00;;;;5071970;28;20170;-46
2022/07/13 05:58:20;;;;;;;2.60;2.40;;;24.80;56.30;25.80;101228.00;;;;5069534;28;20189;-44
2022/07/13 06:00:46;;;;;;;2.40;2.20;;;24.80;55.40;25.80;101224.00;;;;5069063;28;20181;-45
2022/07/13 06:03:12;;;;;;;2.53;2.33;;;24.80;56.00;25.70;101233.00;;;;5069637;28;20161;-44
2022/07/13 06:05:38;;;;;;;2.90;2.30;;;24.80;56.20;25.80;101225.00;;;;5068871;28;20192;-44
2022/07/13 06:08:04;;;;;;;3.23;2.37;;;24.70;56.20;25.80;101218.00;;;;5067145;28;20197;-44
2022/07/13 06:10:30;;;;;;;3.30;2.30;;;24.80;56.20;25.70;101228.00;;;;5068496;28;20657;-45
2022/07/13 06:12:55;;;;;;;4.13;2.40;;;24.80;56.10;25.70;101220.00;;;;5068649;28;20177;-45
2022/07/13 06:15:21;;;;;;;2.70;2.33;;;24.80;56.10;25.70;101223.00;;;;5068883;28;20215;-43
2022/07/13 06:17:47;;;;;;;2.63;2.20;;;24.70;56.00;25.70;101218.00;;;;5068827;28;20185;-44
2022/07/13 06:20:13;;;;;;;2.22;2.13;;;24.70;56.10;25.70;101218.00;;;;5068674;28;20173;-45
2022/07/13 06:22:38;;;;;;;2.50;2.30;;;24.70;56.10;25.70;101214.00;;;;5068845;28;20165;-46
2022/07/13 06:25:05;;;;;;;2.88;2.20;;;24.80;56.10;25.70;101217.00;;;;5068513;28;20181;-44
2022/07/13 06:27:30;;;;;;;2.27;2.17;;;24.80;56.20;25.70;101233.00;;;;5068172;28;20190;-43
2022/07/13 06:29:56;;;;;;;2.90;2.37;;;24.70;56.00;25.70;101213.00;;;;5068401;28;20232;-45
2022/07/13 06:32:22;;;;;;;3.93;2.30;;;24.80;56.20;25.70;101216.00;;;;5067967;28;20170;-46
2022/07/13 06:34:48;;;;;;;2.73;2.30;;;24.80;56.20;25.70;101209.00;;;;5068125;28;20201;-45
2022/07/13 06:37:13;;;;;;;2.40;2.20;;;24.80;56.20;25.70;101207.00;;;;5067914;28;20189;-44
2022/07/13 06:39:39;;;;;;;2.30;2.20;;;24.80;56.10;25.70;101212.00;;;;5068319;28;20304;-43
2022/07/13 06:42:05;;;;;;;2.50;2.30;;;24.80;56.10;25.70;101214.00;;;;5067597;28;20656;-43
2022/07/13 06:44:30;;;;;;;2.60;2.40;;;24.80;56.10;25.70;101217.00;;;;5066295;28;20181;-45
2022/07/13 06:46:59;;;;;;;2.50;2.30;;;24.80;56.20;25.70;101222.00;;;;5069057;28;20185;-45
2022/07/13 06:49:26;;;;;;;2.47;2.20;;;24.80;56.20;25.70;101215.00;;;;5068309;28;20221;-44
2022/07/13 06:51:54;;;;;;;2.40;2.20;;;24.80;56.20;25.70;101213.00;;;;5067774;28;20811;-45
2022/07/13 06:54:20;;;;;;;2.50;2.30;;;24.80;56.20;25.70;101213.00;;;;5067440;28;20234;-44
2022/07/13 06:56:46;;;;;;;2.30;2.10;;;24.80;56.20;25.50;101219.00;;;;5067910;28;20778;-44
2022/07/13 06:59:12;;;;;;;2.20;2.10;;;24.80;56.30;25.70;101215.00;;;;5067471;28;20211;-45
2022/07/13 07:01:37;;;;;;;2.50;2.30;;;24.80;56.30;25.70;101213.00;;;;5067571;28;20300;-43
2022/07/13 07:04:03;;;;;;;2.53;2.30;;;24.80;56.30;25.70;101218.00;;;;5067092;28;20205;-45
2022/07/13 07:06:30;;;;;;;2.60;2.40;;;24.80;56.20;25.70;101221.00;;;;5067406;28;20181;-43
2022/07/13 07:08:58;;;;;;;5.33;2.23;;;24.80;56.20;25.80;101223.00;;;;4992120;28;20188;-44
2022/07/13 07:11:24;;;;;;;2.70;2.50;;;24.80;56.30;25.70;101219.00;;;;5088418;28;20169;-43
2022/07/13 07:13:50;;;;;;;2.50;2.30;;;24.80;56.30;25.70;101216.00;;;;5087955;28;20607;-44
2022/07/13 07:16:16;;;;;;;3.17;2.40;;;24.80;56.30;25.70;101210.00;;;;5088515;28;20161;-46
2022/07/13 07:18:41;;;;;;;2.87;2.50;;;24.80;56.30;25.70;101218.00;;;;5087602;28;20220;-43
2022/07/13 07:21:07;;;;;;;2.90;2.50;;;24.80;56.30;25.80;101212.00;;;;5087478;28;20165;-45
2022/07/13 07:23:33;;;;;;;3.83;2.40;;;24.80;56.10;25.70;101209.00;;;;5087687;28;20177;-46
2022/07/13 07:25:59;;;;;;;2.57;2.37;;;24.90;56.20;25.70;101205.00;;;;5087611;28;20252;-45
2022/07/13 07:28:24;;;;;;;2.47;2.27;;;24.80;56.00;25.80;101215.00;;;;5086158;28;20793;-42
2022/07/13 07:30:51;;;;;;;2.50;2.30;;;24.90;56.10;25.80;101213.00;;;;5087359;28;20173;-47
2022/07/13 07:33:17;;;;;;;3.60;2.60;;;24.90;56.20;25.80;101203.00;;;;5087290;28;20865;-43
2022/07/13 07:35:43;;;;;;;3.40;2.47;;;24.90;56.10;25.80;101212.00;;;;5087330;28;20173;-44
2022/07/13 07:38:08;;;;;;;2.50;2.30;;;24.90;56.00;25.80;101211.00;;;;5087070;28;20197;-46
2022/07/13 07:40:34;;;;;;;2.77;2.57;;;25.00;56.10;25.80;101204.00;;;;5087416;28;20260;-44
2022/07/13 07:43:00;;;;;;;2.70;2.50;;;24.90;56.10;25.80;101203.00;;;;5093781;28;20237;-44
2022/07/13 07:45:26;;;;;;;3.63;2.70;;;24.90;55.90;25.80;101210.00;;;;5107591;28;20214;-47
2022/07/13 07:47:51;;;;;;;4.33;2.70;;;24.90;55.70;25.80;101206.00;;;;5107311;28;20656;-45
2022/07/13 07:50:17;;;;;;;3.30;2.60;;;24.90;56.00;25.80;101204.00;;;;5107740;28;20226;-44
2022/07/13 07:52:43;;;;;;;4.83;2.90;;;25.00;56.30;25.80;101202.00;;;;5107750;28;20588;-44
2022/07/13 07:55:09;;;;;;;3.57;2.90;;;25.00;56.50;25.80;101204.00;;;;5107438;28;20175;-45
2022/07/13 07:57:48;;;;;;;3.57;2.60;;;25.00;56.70;25.90;101197.00;;;;5107517;28;20180;-45
2022/07/13 08:00:14;;;;;;;3.03;2.60;;;25.00;56.80;25.90;101204.00;;;;5107636;28;20171;-44
2022/07/13 08:02:40;;;;;;;3.58;2.72;;;25.00;56.90;25.90;101201.00;;;;5094237;28;20552;-44
2022/07/13 08:05:08;;;;;;;3.92;2.60;;;25.00;56.90;25.90;101204.00;;;;5087417;28;20169;-44
2022/07/13 08:07:34;;;;;;;4.17;2.40;;;25.00;57.10;25.80;101206.00;;;;4887230;28;20230;-45
2022/07/13 08:09:59;;;;;;;2.80;2.50;;;25.00;57.40;26.00;101206.00;;;;5089848;28;20526;-44
2022/07/13 08:12:25;;;;;;;3.33;2.75;;;25.00;57.10;26.00;101211.00;;;;5089735;28;20192;-44
2022/07/13 08:14:51;;;;;;;2.90;2.60;;;25.00;57.80;26.00;101200.00;;;;5087202;28;20633;-44
2022/07/13 08:17:17;;;;;;;3.93;2.73;;;25.00;57.10;26.00;101198.00;;;;5088052;28;20189;-45
2022/07/13 08:19:42;;;;;;;3.83;2.70;;;25.10;57.10;26.00;101203.00;;;;5107417;28;20629;-44
2022/07/13 08:22:08;;;;;;;3.13;2.50;;;25.00;57.10;26.00;101196.00;;;;5106812;28;20180;-43
2022/07/13 08:24:34;;;;;;;3.38;2.60;;;25.00;57.10;26.10;101197.00;;;;5107010;28;20214;-44
2022/07/13 08:27:01;;;;;;;5.63;2.50;;;25.00;57.20;25.90;101200.00;;;;5106726;28;20191;-44
2022/07/13 08:29:27;;;;;;;3.55;2.78;;;25.10;57.30;26.10;101188.00;;;;5106490;28;20736;-46
2022/07/13 08:31:52;;;;;;;2.83;2.50;;;25.10;57.20;26.10;101180.00;;;;5106912;28;20240;-43
2022/07/13 08:39:47;;;;;;;4.20;2.60;;;25.10;57.40;26.10;101192.00;;;;5106907;28;20208;-45
2022/07/13 08:42:13;;;;;;;2.63;2.43;;;25.10;57.30;26.20;101190.00;;;;5106990;28;20681;-44
2022/07/13 08:44:39;;;;;;;2.80;2.60;;;25.10;57.40;26.20;101197.00;;;;5106751;28;20198;-44
2022/07/13 08:47:06;;;;;;;2.78;2.58;;;25.10;57.40;26.20;101187.00;;;;5106706;28;20180;-44
2022/07/13 08:49:32;;;;;;;2.83;2.58;;;25.20;57.50;26.20;101184.00;;;;5109541;28;20180;-44
2022/07/13 08:51:58;;;;;;;3.60;2.50;;;25.10;57.40;26.20;101180.00;;;;5112442;28;20195;-45
2022/07/13 08:54:24;;;;;;;3.53;2.60;;;25.20;57.50;26.20;101186.00;;;;5108808;28;20533;-46
2022/07/13 08:56:49;;;;;;;3.00;2.70;;;25.20;57.40;26.20;101181.00;;;;5107359;28;20192;-44
2022/07/13 08:59:15;;;;;;;3.57;2.53;;;25.20;57.40;26.20;101189.00;;;;5107089;28;20217;-44
2022/07/13 09:01:41;;;;;;;3.97;2.70;;;25.20;57.40;26.30;101186.00;;;;5102373;28;20691;-44
2022/07/13 09:04:11;;;;;;;3.13;2.60;;;25.20;57.40;26.30;101184.00;;;;5088314;28;20195;-44
2022/07/13 09:06:43;;;;;;;2.72;2.53;;;25.20;57.40;26.00;101163.00;;;;5079431;28;20218;-45
2022/07/13 09:09:35;;;;;;;4.40;2.70;;;25.20;56.90;26.30;101187.00;;;;4960218;28;20249;-44
2022/07/13 09:12:21;;;;;;;2.80;2.60;;;25.30;57.50;26.30;101189.00;;;;5090157;28;20533;-44
2022/07/13 09:14:52;;;;;;;2.95;2.70;;;25.20;57.50;26.30;101183.00;;;;5090326;28;20707;-45
2022/07/13 09:17:43;;;;;;;3.00;2.70;;;25.30;57.50;26.30;101185.00;;;;5090025;28;20550;-45
2022/07/13 09:20:14;;;;;;;2.80;2.60;;;25.30;57.50;26.40;101188.00;;;;5090379;28;20157;-45
2022/07/13 09:22:59;;;;;;;3.40;2.60;;;25.30;57.40;26.40;101185.00;;;;5090266;28;20173;-44
2022/07/13 09:25:34;;;;;;;3.03;2.73;;;25.30;57.50;26.40;101182.00;;;;5090416;28;20189;-44
2022/07/13 09:28:11;;;;;;;3.00;2.70;;;25.40;57.30;26.40;101182.00;;;;5089619;28;20207;-44
2022/07/13 09:30:41;;;;;;;3.30;2.80;;;25.40;57.30;26.40;101176.00;;;;5090495;28;20153;-44
2022/07/13 09:33:07;;;;;;;2.87;2.53;;;25.40;57.20;26.40;101178.00;;;;5090378;28;20566;-45
2022/07/13 09:35:51;;;;;;;3.00;2.50;;;25.50;57.80;26.40;101173.00;;;;5088753;28;20176;-44
2022/07/13 09:38:28;;;;;;;3.05;2.75;;;25.50;57.00;26.50;101177.00;;;;5091638;28;20193;-45
2022/07/13 09:40:54;;;;;;;3.33;2.75;;;25.50;56.90;26.50;101168.00;;;;5090134;28;20204;-45
2022/07/13 09:46:10;;;;;;;2.70;2.50;;;25.50;56.80;26.50;101185.00;;;;5089028;28;20245;-45
2022/07/13 09:48:37;;;;;;;2.97;2.58;;;25.50;56.80;26.50;101182.00;;;;5090164;28;20192;-45
2022/07/13 09:51:03;;;;;;;2.63;2.42;;;25.50;56.80;26.50;101181.00;;;;5089648;28;20646;-44
2022/07/13 09:53:30;;;;;;;3.95;2.65;;;25.50;56.70;26.50;101177.00;;;;5090498;28;20264;-43
2022/07/13 09:55:59;;;;;;;2.97;2.67;;;25.50;56.80;26.60;101171.00;;;;5097972;28;20177;-46
2022/07/13 09:58:29;;;;;;;3.92;2.72;;;25.50;56.70;26.60;101167.00;;;;5094360;28;20185;-46
2022/07/13 10:00:57;;;;;;;2.80;2.60;;;25.60;56.70;26.60;101163.00;;;;5089874;28;20176;-44
2022/07/13 10:03:23;;;;;;;2.60;2.40;;;25.60;56.80;26.60;101168.00;;;;5089448;28;20644;-45
2022/07/13 10:05:56;;;;;;;2.70;2.50;;;25.60;56.70;26.60;101172.00;;;;5089890;28;20173;-50
2022/07/13 10:08:22;;;;;;;3.03;2.70;;;25.60;56.60;26.70;101170.00;;;;4838200;28;20634;-45
2022/07/13 10:10:49;;;;;;;2.70;2.50;;;25.60;56.60;26.70;101179.00;;;;5110399;28;20192;-46
2022/07/13 10:13:15;;;;;;;2.70;2.50;;;25.70;56.60;26.70;101183.00;;;;5111041;28;20172;-44
2022/07/13 10:15:40;;;;;;;2.75;2.55;;;25.70;56.50;26.70;101125.00;;;;5109922;28;20175;-43
2022/07/13 10:18:09;;;;;;;2.95;2.58;;;25.70;56.40;26.70;101182.00;;;;5109767;28;20188;-44
2022/07/13 10:20:36;;;;;;;2.85;2.63;;;25.80;56.40;26.70;101190.00;;;;5098766;28;20173;-44
2022/07/13 10:23:01;;;;;;;2.90;2.70;;;25.80;56.20;26.80;101177.00;;;;5125043;28;20202;-45
2022/07/13 10:25:44;;;;;;;3.05;2.70;;;25.80;56.10;26.80;101186.00;;;;5131806;28;20191;-45
2022/07/13 10:28:11;;;;;;;3.42;3.13;;;25.80;56.10;26.80;101196.00;;;;5115863;28;20203;-44
2022/07/13 10:30:37;;;;;;;2.78;2.58;;;25.80;56.00;26.80;101187.00;;;;5110326;28;20165;-44
2022/07/13 10:33:20;;;;;;;3.10;2.80;;;25.80;56.10;26.80;101184.00;;;;5108971;28;20174;-45
2022/07/13 10:35:53;;;;;;;2.60;2.40;;;25.80;56.80;26.80;101178.00;;;;5110579;28;20172;-45
2022/07/13 10:38:22;;;;;;;2.80;2.60;;;25.80;56.30;26.80;101182.00;;;;5109602;27;20730;-44
2022/07/13 10:40:48;;;;;;;3.00;2.63;;;25.80;56.40;26.80;101191.00;;;;5109726;28;20171;-43
2022/07/13 10:43:15;;;;;;;2.85;2.63;;;25.80;56.40;26.80;101182.00;;;;5109414;28;20157;-45
2022/07/13 10:45:53;;;;;;;2.92;2.67;;;25.80;57.10;26.90;101201.00;;;;5105735;28;20267;-46
2022/07/13 10:48:25;;;;;;;2.80;2.60;;;25.80;56.50;26.90;101183.00;;;;5088391;28;20228;-45
2022/07/13 10:51:01;;;;;;;2.70;2.50;;;25.80;56.50;26.90;101180.00;;;;5089180;28;20887;-45
2022/07/13 10:53:40;;;;;;;2.70;2.50;;;25.80;56.60;26.90;101195.00;;;;5087914;28;20164;-43
2022/07/13 10:56:19;;;;;;;2.85;2.65;;;25.90;56.70;26.90;101194.00;;;;5091590;28;20256;-44